Seligman, AZ (86337)

01:19 AM MST del 23 Marzo 2017 (GMT -0700)
W7RH Westwood Ranch | | Change Station

Alt. 5912 ft 35.40 °N, 112.66 °W | Updated 34 seconds ago

Coperto
Coperto
36.7 °F
Sembra 33 °F
N
5.0
Vento Variabile Vento da SSO

Oggi
Massima -- | Minima -- °F
--% Possibilità di precip.
Ieri
Massima -- | Minima -- °F
Precip. -- in
Pressione 29.89 in
Visibilità 4.0 miglia
Nuvole Nubi sparse 300 ft
Coperto 2600 ft
Raffreddamento del vento 33 °F
Punto di rugiada 34 °F
Umidità 93%
Piovosità 0.00 in
Spessore del manto nevoso Non disponibile.
6:30 AM 6:45 PM
Luna calante, 25% visible
METAR KCMR 230815Z AUTO 17006G12KT 4SM -SN SCT003 OVC026 01/M00 A2989 RMK AO2
Pressione 29.89 in
Visibilità 4.0 miglia
Nuvole Nubi sparse 300 ft
Coperto 2600 ft
Raffreddamento del vento 33 °F
Punto di rugiada 34 °F
Umidità 93%
Piovosità 0.00 in
Spessore del manto nevoso Non disponibile.
6:30 AM 6:45 PM
Luna calante, 25% visible
METAR KCMR 230815Z AUTO 17006G12KT 4SM -SN SCT003 OVC026 01/M00 A2989 RMK AO2

Get Severe Weather Alerts

Thanks for signing up!

Be on the lookout for a verification email in your inbox.

You'll start receiving the daily forecast at 8 AM.

×

10-Day Weather Forecast

Almanac

Astronomia

Mar. 23, 2017 Alba Tramonto
Ora attuale
Crepuscolo civile
Crepuscolo nautico
Crepuscolo astronomico
Luna
Estensione della luce visibile
Lunghezza del giorno
Tomorrow will be .
, % of the Moon is Illuminated

Gli estremi di oggi

State Highs State Lows

Community

WunderPhotos

Upload Photos

1,962,540 foto caricate!

WunderBlog® & News

Nearby

Qualità dell'aria

  Qualità dell'aria Indice AQ Inquinante
Not available.

Profondità neve

Stazione Profondità Altitudine

Attività sismica

Città  Distanza Mag. Data & Ora
Minimo Magnitudo Mostrato è 2.5.

Attività sismica

Città  Distanza Mag. Data & Ora
Minimo Magnitudo Mostrato è 2.5.

Temperature delle acque costiere

Località Temperatura

Stations

Stazioni meteo nelle vicinanze

Ubicazione della stazione Temp. Raffreddamento del vento Punto di rugiada Umidità Vento Precip. Alt. Aggiornato Tipo
                   

Watches & Warnings

There are currently no watches in effect.